Time;durP1;ratioP1;P1;durP2;ratioP2;P2;SDS_P1;SDS_P2;PMS_P1;PMS_P2;Temp;Humidity;BMP_temperature;BMP_pressure;BME280_temperature;BME280_humidity;BME280_pressure;Samples;Min_cycle;Max_cycle;Signal;HPM_P1;HPM_P2
2023/10/11 00:00:24;;;;;;;17.85;16.20;;;;;;;;;;5033862;28;20072;-59
2023/10/11 00:02:50;;;;;;;14.00;8.73;;;;;;;;;;5036858;28;20018;-61
2023/10/11 00:05:15;;;;;;;9.80;8.63;;;;;;;;;;5037436;28;20104;-61
2023/10/11 00:07:42;;;;;;;14.77;11.82;;;;;;;;;;5036742;28;20072;-61
2023/10/11 00:10:10;;;;;;;12.68;9.57;;;;;;;;;;5033911;28;20021;-60
2023/10/11 00:12:36;;;;;;;14.50;12.70;;;;;;;;;;5034780;28;20021;-59
2023/10/11 00:15:02;;;;;;;11.97;10.27;;;;;;;;;;5034435;28;20028;-60
2023/10/11 00:17:28;;;;;;;13.68;12.27;;;;;;;;;;5034805;28;20030;-58
2023/10/11 00:19:53;;;;;;;14.98;11.77;;;;;;;;;;5033872;28;20025;-58
2023/10/11 00:22:18;;;;;;;11.03;8.53;;;;;;;;;;5034310;28;20033;-59
2023/10/11 00:24:44;;;;;;;15.77;14.33;;;;;;;;;;5034081;28;20427;-60
2023/10/11 00:27:10;;;;;;;12.50;8.52;;;;;;;;;;5034080;28;20022;-61
2023/10/11 00:29:39;;;;;;;14.68;10.65;;;;;;;;;;5033377;28;20040;-60
2023/10/11 00:32:04;;;;;;;15.57;12.70;;;;;;;;;;5034242;28;20028;-61
2023/10/11 00:34:29;;;;;;;27.00;25.00;;;;;;;;;;5032379;28;20026;-60
2023/10/11 00:36:54;;;;;;;20.50;18.73;;;;;;;;;;5033765;28;20021;-59
2023/10/11 00:39:19;;;;;;;12.38;11.18;;;;;;;;;;5033606;28;20029;-59
2023/10/11 00:41:48;;;;;;;11.82;10.18;;;;;;;;;;5033279;28;20022;-58
2023/10/11 00:44:17;;;;;;;12.50;8.98;;;;;;;;;;5033677;28;20367;-58
2023/10/11 00:47:00;;;;;;;13.98;12.60;;;;;;;;;;5033914;28;20100;-59
2023/10/11 00:49:35;;;;;;;11.90;9.15;;;;;;;;;;5033045;28;20045;-61
2023/10/11 00:52:04;;;;;;;13.20;11.55;;;;;;;;;;5033644;28;20022;-61
2023/10/11 00:54:30;;;;;;;12.40;11.07;;;;;;;;;;5033488;28;20037;-61
2023/10/11 00:56:55;;;;;;;17.70;16.13;;;;;;;;;;5033639;28;20037;-61
2023/10/11 00:59:21;;;;;;;15.88;14.38;;;;;;;;;;5033249;28;20025;-58
2023/10/11 01:01:46;;;;;;;12.73;10.82;;;;;;;;;;5033328;28;20026;-61
2023/10/11 01:04:12;;;;;;;23.17;21.13;;;;;;;;;;5033110;28;20044;-60
2023/10/11 01:06:37;;;;;;;12.40;9.93;;;;;;;;;;5033321;28;20025;-60
2023/10/11 01:09:18;;;;;;;21.23;19.23;;;;;;;;;;5033016;28;20014;-59
2023/10/11 01:11:45;;;;;;;12.50;8.60;;;;;;;;;;5032204;28;20026;-61
2023/10/11 01:14:11;;;;;;;12.77;10.73;;;;;;;;;;5032756;28;20416;-58
2023/10/11 01:16:37;;;;;;;16.52;9.70;;;;;;;;;;5033319;28;20088;-58
2023/10/11 01:19:07;;;;;;;16.10;14.48;;;;;;;;;;5032617;28;20458;-60
2023/10/11 01:21:34;;;;;;;17.77;16.08;;;;;;;;;;5032981;28;20095;-61
2023/10/11 01:23:59;;;;;;;14.98;13.52;;;;;;;;;;5032926;28;20018;-60
2023/10/11 01:26:27;;;;;;;13.40;12.00;;;;;;;;;;5032988;28;20025;-60
2023/10/11 01:28:52;;;;;;;15.40;13.48;;;;;;;;;;5032895;28;20018;-61
2023/10/11 01:31:17;;;;;;;17.67;16.00;;;;;;;;;;5032556;28;20036;-58
2023/10/11 01:33:43;;;;;;;17.87;15.13;;;;;;;;;;5032930;28;20492;-59
2023/10/11 01:36:09;;;;;;;14.32;12.02;;;;;;;;;;5032773;28;20476;-60
2023/10/11 01:38:53;;;;;;;15.90;13.10;;;;;;;;;;5032759;28;20025;-59
2023/10/11 01:41:20;;;;;;;14.18;12.68;;;;;;;;;;5032371;28;20072;-60
2023/10/11 01:43:49;;;;;;;18.90;17.17;;;;;;;;;;5032746;28;20279;-60
2023/10/11 01:46:21;;;;;;;23.45;21.33;;;;;;;;;;5031251;28;20041;-60
2023/10/11 01:48:47;;;;;;;15.85;14.25;;;;;;;;;;5032322;28;20025;-60
2023/10/11 01:51:15;;;;;;;24.17;22.15;;;;;;;;;;5032015;28;20049;-59
2023/10/11 01:53:41;;;;;;;19.55;17.63;;;;;;;;;;5032165;28;20032;-59
2023/10/11 01:56:06;;;;;;;21.07;17.27;;;;;;;;;;5032396;28;20025;-60
2023/10/11 01:58:31;;;;;;;23.97;21.83;;;;;;;;;;5032456;28;20471;-61
2023/10/11 02:00:56;;;;;;;26.15;23.92;;;;;;;;;;5031964;28;20014;-61
2023/10/11 02:03:24;;;;;;;20.55;18.60;;;;;;;;;;5031884;28;20029;-60
2023/10/11 02:05:50;;;;;;;25.23;23.02;;;;;;;;;;5032133;28;20018;-61
2023/10/11 02:08:17;;;;;;;23.40;21.13;;;;;;;;;;5032126;28;20014;-60
2023/10/11 02:10:44;;;;;;;;;;;;;;;;;;5031964;28;20033;-60
2023/10/11 02:13:09;;;;;;;17.52;15.77;;;;;;;;;;5032034;28;19905;-59
2023/10/11 02:15:35;;;;;;;26.63;24.35;;;;;;;;;;5031668;28;20020;-61
2023/10/11 02:18:07;;;;;;;25.05;22.90;;;;;;;;;;5032067;28;20088;-58
2023/10/11 02:20:32;;;;;;;19.60;16.45;;;;;;;;;;5031350;28;20032;-57
2023/10/11 02:22:59;;;;;;;23.98;21.85;;;;;;;;;;5030997;28;20710;-58
2023/10/11 02:25:25;;;;;;;22.05;19.80;;;;;;;;;;5031443;28;20017;-60
2023/10/11 02:27:51;;;;;;;31.23;28.70;;;;;;;;;;5031826;28;20024;-60
2023/10/11 02:30:21;;;;;;;23.42;21.15;;;;;;;;;;5031180;28;20510;-60
2023/10/11 02:32:47;;;;;;;29.67;27.30;;;;;;;;;;5031818;28;20017;-59
2023/10/11 02:35:13;;;;;;;26.25;24.00;;;;;;;;;;5031429;28;20084;-60
2023/10/11 02:37:38;;;;;;;22.05;19.90;;;;;;;;;;5030138;28;20093;-59
2023/10/11 02:40:08;;;;;;;21.13;19.13;;;;;;;;;;5029324;28;20028;-60
2023/10/11 02:42:36;;;;;;;19.70;17.98;;;;;;;;;;5031642;28;20013;-60
2023/10/11 02:45:06;;;;;;;16.52;14.93;;;;;;;;;;5031337;28;20083;-60
2023/10/11 02:47:31;;;;;;;35.00;32.20;;;;;;;;;;5031836;28;20018;-59
2023/10/11 02:50:02;;;;;;;20.27;18.17;;;;;;;;;;5030925;28;20551;-59
2023/10/11 02:52:35;;;;;;;21.13;18.98;;;;;;;;;;5031664;28;20017;-60
2023/10/11 02:55:10;;;;;;;18.35;14.30;;;;;;;;;;5031621;28;20021;-59
2023/10/11 02:57:36;;;;;;;20.70;18.50;;;;;;;;;;5031898;28;20377;-59
2023/10/11 03:00:10;;;;;;;14.97;13.07;;;;;;;;;;5030134;28;20021;-58
2023/10/11 03:02:39;;;;;;;19.00;17.08;;;;;;;;;;5032503;28;20029;-59
2023/10/11 03:05:06;;;;;;;25.33;22.77;;;;;;;;;;5033281;28;20079;-59
2023/10/11 03:07:34;;;;;;;18.83;12.57;;;;;;;;;;5033067;28;20532;-59
2023/10/11 03:09:59;;;;;;;15.27;11.60;;;;;;;;;;5030449;28;20028;-60
2023/10/11 03:12:30;;;;;;;24.80;20.83;;;;;;;;;;5031346;28;20017;-60
2023/10/11 03:14:56;;;;;;;16.42;13.93;;;;;;;;;;5030695;28;20025;-60
2023/10/11 03:17:24;;;;;;;14.55;13.02;;;;;;;;;;5031133;28;20025;-60
2023/10/11 03:19:54;;;;;;;21.00;18.88;;;;;;;;;;5030406;28;20386;-60
2023/10/11 03:22:20;;;;;;;18.88;12.10;;;;;;;;;;5030971;28;20488;-60
2023/10/11 03:24:53;;;;;;;17.60;12.88;;;;;;;;;;5031124;28;20025;-59
2023/10/11 03:27:23;;;;;;;26.10;23.27;;;;;;;;;;5030770;28;20037;-60
2023/10/11 03:29:50;;;;;;;23.35;20.92;;;;;;;;;;5030380;28;20564;-60
2023/10/11 03:32:18;;;;;;;19.45;13.43;;;;;;;;;;5030504;28;20033;-61
2023/10/11 03:34:43;;;;;;;20.73;18.70;;;;;;;;;;5034304;28;20009;-60
2023/10/11 03:37:17;;;;;;;15.73;10.80;;;;;;;;;;5037518;28;20021;-59
2023/10/11 03:39:44;;;;;;;16.15;10.98;;;;;;;;;;5036882;28;20374;-60
2023/10/11 03:44:40;;;;;;;26.17;23.92;;;;;;;;;;5037345;28;20116;-60
2023/10/11 03:47:07;;;;;;;17.80;15.50;;;;;;;;;;5036984;28;20022;-59
2023/10/11 03:49:38;;;;;;;12.40;10.25;;;;;;;;;;5037005;28;20025;-60
2023/10/11 03:52:16;;;;;;;19.40;13.80;;;;;;;;;;5036139;28;20029;-59
2023/10/11 03:54:42;;;;;;;22.05;20.02;;;;;;;;;;5037100;28;20056;-59
2023/10/11 03:57:07;;;;;;;19.77;17.80;;;;;;;;;;5037254;28;20045;-60
2023/10/11 03:59:38;;;;;;;18.20;16.40;;;;;;;;;;5036578;28;20029;-60
2023/10/11 04:02:03;;;;;;;17.85;14.00;;;;;;;;;;5037090;28;20017;-60
2023/10/11 04:04:28;;;;;;;15.73;10.82;;;;;;;;;;5036861;28;20028;-59
2023/10/11 04:07:00;;;;;;;18.93;15.37;;;;;;;;;;5036976;28;20158;-60
2023/10/11 04:09:37;;;;;;;25.90;23.58;;;;;;;;;;5036606;28;20385;-60
2023/10/11 04:12:10;;;;;;;24.20;21.52;;;;;;;;;;5035918;28;20029;-59
2023/10/11 04:14:39;;;;;;;24.35;21.98;;;;;;;;;;5037356;28;20025;-58
2023/10/11 04:17:14;;;;;;;16.58;11.98;;;;;;;;;;5037068;28;20021;-59
2023/10/11 04:19:41;;;;;;;15.18;9.48;;;;;;;;;;5036180;28;20037;-60
2023/10/11 04:22:12;;;;;;;14.82;10.35;;;;;;;;;;5037045;28;20053;-59
2023/10/11 04:24:38;;;;;;;16.27;13.07;;;;;;;;;;5036847;28;20489;-59
2023/10/11 04:29:50;;;;;;;15.18;13.60;;;;;;;;;;5036311;28;20357;-59
2023/10/11 04:32:19;;;;;;;15.27;11.35;;;;;;;;;;5036990;28;20049;-60
2023/10/11 04:34:55;;;;;;;13.43;9.15;;;;;;;;;;5036883;28;20017;-60
2023/10/11 04:37:33;;;;;;;13.40;10.88;;;;;;;;;;5036694;28;20082;-60
2023/10/11 04:40:22;;;;;;;17.17;15.45;;;;;;;;;;5034865;28;20013;-59
2023/10/11 04:42:44;;;;;;;17.13;15.52;;;;;;;;;;5036468;28;20053;-61
2023/10/11 04:45:21;;;;;;;15.33;9.77;;;;;;;;;;5036454;28;20087;-59
2023/10/11 04:47:56;;;;;;;14.50;11.30;;;;;;;;;;5031980;28;20130;-58
2023/10/11 04:50:23;;;;;;;22.98;20.67;;;;;;;;;;5033236;28;20032;-57
2023/10/11 04:52:49;;;;;;;18.02;15.77;;;;;;;;;;5033421;28;20114;-58
2023/10/11 04:55:15;;;;;;;22.95;20.85;;;;;;;;;;5033551;28;20028;-61
2023/10/11 04:57:49;;;;;;;18.02;15.93;;;;;;;;;;5033370;28;20025;-59
2023/10/11 05:00:18;;;;;;;18.75;16.83;;;;;;;;;;5033104;28;20029;-59
2023/10/11 05:02:44;;;;;;;14.75;10.88;;;;;;;;;;5033923;28;20025;-59
2023/10/11 05:05:18;;;;;;;14.98;11.73;;;;;;;;;;5033845;28;20017;-58
2023/10/11 05:07:46;;;;;;;15.93;11.88;;;;;;;;;;5034264;28;20014;-60
2023/10/11 05:13:11;;;;;;;24.85;22.50;;;;;;;;;;5033591;28;20021;-60
2023/10/11 05:15:42;;;;;;;22.58;20.40;;;;;;;;;;5033289;28;20546;-60
2023/10/11 05:18:08;;;;;;;20.90;18.70;;;;;;;;;;5033322;28;20021;-60
2023/10/11 05:20:44;;;;;;;18.53;11.47;;;;;;;;;;5032694;28;20098;-61
2023/10/11 05:23:13;;;;;;;31.80;28.58;;;;;;;;;;5033184;28;20436;-60
2023/10/11 05:25:58;;;;;;;23.38;21.17;;;;;;;;;;5032819;28;20014;-60
2023/10/11 05:31:01;;;;;;;13.88;11.32;;;;;;;;;;5032378;28;20539;-60
2023/10/11 05:33:57;;;;;;;20.33;11.82;;;;;;;;;;5032654;28;20427;-60
2023/10/11 05:36:49;;;;;;;16.15;11.80;;;;;;;;;;5032730;28;20485;-58
2023/10/11 05:52:55;;;;;;;21.33;19.23;;;;;;;;;;5032890;28;20408;-57
2023/10/11 05:55:22;;;;;;;18.50;13.00;;;;;;;;;;5031605;28;20100;-59
2023/10/11 05:57:48;;;;;;;16.38;10.43;;;;;;;;;;5045535;28;20059;-59
2023/10/11 06:00:26;;;;;;;17.83;15.15;;;;;;;;;;5052281;28;20028;-58
2023/10/11 06:02:52;;;;;;;21.15;19.10;;;;;;;;;;5043232;28;20473;-59
2023/10/11 06:05:22;;;;;;;24.88;22.45;;;;;;;;;;5033052;28;20021;-59
2023/10/11 06:08:00;;;;;;;24.42;22.38;;;;;;;;;;5033203;28;20424;-59
2023/10/11 06:10:29;;;;;;;15.52;10.52;;;;;;;;;;5031891;28;20116;-60
2023/10/11 06:12:58;;;;;;;14.20;8.88;;;;;;;;;;5031041;28;20024;-61
2023/10/11 06:15:23;;;;;;;17.35;12.38;;;;;;;;;;5032075;28;20067;-59
2023/10/11 06:17:49;;;;;;;21.60;19.50;;;;;;;;;;5031869;28;20021;-58
2023/10/11 06:20:25;;;;;;;23.83;21.85;;;;;;;;;;5031714;28;20052;-59
2023/10/11 06:22:50;;;;;;;17.95;16.17;;;;;;;;;;5031786;28;20017;-62
2023/10/11 06:25:22;;;;;;;36.17;33.53;;;;;;;;;;5031919;28;20018;-60
2023/10/11 06:30:22;;;;;;;17.13;14.48;;;;;;;;;;5031455;28;20026;-59
2023/10/11 06:32:49;;;;;;;14.23;11.40;;;;;;;;;;5031583;28;20083;-61
2023/10/11 06:35:23;;;;;;;45.75;42.47;;;;;;;;;;5031707;28;20017;-58
2023/10/11 06:37:52;;;;;;;29.63;27.08;;;;;;;;;;5031642;28;20013;-58
2023/10/11 06:40:18;;;;;;;43.42;40.40;;;;;;;;;;5030884;28;20021;-60
2023/10/11 06:42:43;;;;;;;33.45;30.67;;;;;;;;;;5031623;28;20045;-60
2023/10/11 06:45:16;;;;;;;22.33;20.25;;;;;;;;;;5031215;28;20027;-60
2023/10/11 06:47:42;;;;;;;36.42;33.75;;;;;;;;;;5031414;28;20033;-61
2023/10/11 06:50:13;;;;;;;16.27;13.30;;;;;;;;;;5030864;28;20029;-60
2023/10/11 06:52:45;;;;;;;26.05;23.67;;;;;;;;;;5031377;28;20018;-61
2023/10/11 06:55:15;;;;;;;41.03;38.20;;;;;;;;;;5032390;28;20076;-60
2023/10/11 06:57:41;;;;;;;35.45;32.55;;;;;;;;;;5031458;28;20033;-60
2023/10/11 07:00:12;;;;;;;13.48;11.65;;;;;;;;;;5030781;28;20072;-60
2023/10/11 07:02:38;;;;;;;68.10;63.10;;;;;;;;;;5030969;28;20037;-60
2023/10/11 07:05:08;;;;;;;27.80;25.30;;;;;;;;;;5031185;28;20366;-60
2023/10/11 07:07:33;;;;;;;31.45;28.63;;;;;;;;;;5031314;28;20025;-59
2023/10/11 07:10:00;;;;;;;32.17;29.47;;;;;;;;;;5029998;28;20396;-59
2023/10/11 07:12:28;;;;;;;16.23;12.55;;;;;;;;;;5031337;28;20484;-60
2023/10/11 07:14:54;;;;;;;24.42;22.23;;;;;;;;;;5031281;28;20021;-60
2023/10/11 07:17:21;;;;;;;14.48;10.02;;;;;;;;;;5029622;28;20036;-59
2023/10/11 07:19:50;;;;;;;19.92;17.88;;;;;;;;;;5029529;28;20106;-58
2023/10/11 07:22:20;;;;;;;17.50;13.63;;;;;;;;;;5031359;28;20443;-61
2023/10/11 07:24:45;;;;;;;27.25;25.02;;;;;;;;;;5029708;28;20032;-60
2023/10/11 07:27:15;;;;;;;18.63;16.93;;;;;;;;;;5030899;28;20055;-60
2023/10/11 07:29:45;;;;;;;34.97;32.20;;;;;;;;;;5030029;28;20440;-61
2023/10/11 07:32:11;;;;;;;20.38;18.52;;;;;;;;;;5030857;28;20029;-58
2023/10/11 07:34:36;;;;;;;22.60;20.55;;;;;;;;;;5030960;28;20026;-59
2023/10/11 07:37:04;;;;;;;34.25;31.50;;;;;;;;;;5030610;28;20033;-58
2023/10/11 07:39:33;;;;;;;21.38;19.60;;;;;;;;;;5030322;28;20018;-60
2023/10/11 07:44:31;;;;;;;17.90;15.63;;;;;;;;;;5030674;28;20034;-61
2023/10/11 07:46:56;;;;;;;23.40;21.38;;;;;;;;;;5030777;28;20105;-61
2023/10/11 07:49:24;;;;;;;17.15;13.77;;;;;;;;;;5030201;28;20100;-58
2023/10/11 07:51:53;;;;;;;31.35;29.15;;;;;;;;;;5030848;28;20025;-60
2023/10/11 07:54:21;;;;;;;12.18;10.63;;;;;;;;;;5030453;28;20044;-59
2023/10/11 07:56:52;;;;;;;16.73;11.77;;;;;;;;;;5030649;28;20049;-59
2023/10/11 07:59:21;;;;;;;21.05;13.00;;;;;;;;;;5030275;28;20550;-60
2023/10/11 08:01:46;;;;;;;29.08;26.52;;;;;;;;;;5030908;28;20470;-60
2023/10/11 08:04:16;;;;;;;19.47;17.43;;;;;;;;;;5030594;28;20049;-60
2023/10/11 08:06:41;;;;;;;17.35;14.95;;;;;;;;;;5030569;28;20029;-60
2023/10/11 08:09:07;;;;;;;45.67;42.47;;;;;;;;;;5031043;28;20473;-58
2023/10/11 08:11:45;;;;;;;43.53;40.30;;;;;;;;;;5030187;28;20032;-59
2023/10/11 08:14:15;;;;;;;14.80;13.32;;;;;;;;;;5030696;28;20091;-60
2023/10/11 08:16:41;;;;;;;21.70;19.67;;;;;;;;;;5030456;28;20021;-59
2023/10/11 08:19:06;;;;;;;27.42;25.08;;;;;;;;;;5030080;28;20033;-60
2023/10/11 08:21:31;;;;;;;17.00;14.90;;;;;;;;;;5031271;28;20129;-60
2023/10/11 08:23:57;;;;;;;31.90;29.60;;;;;;;;;;5034118;28;20505;-59
2023/10/11 08:26:24;;;;;;;17.70;15.55;;;;;;;;;;5034186;28;20040;-64
2023/10/11 08:28:50;;;;;;;35.85;33.28;;;;;;;;;;5034726;28;20018;-60
2023/10/11 08:31:39;;;;;;;25.48;23.27;;;;;;;;;;5033565;28;20033;-60
2023/10/11 08:34:04;;;;;;;36.10;33.17;;;;;;;;;;5034250;28;20083;-60
2023/10/11 08:36:33;;;;;;;27.20;25.08;;;;;;;;;;5034005;28;20470;-59
2023/10/11 08:39:02;;;;;;;49.05;45.58;;;;;;;;;;5033506;28;20033;-61
2023/10/11 08:41:30;;;;;;;40.47;37.55;;;;;;;;;;5034137;28;20021;-60
2023/10/11 08:43:59;;;;;;;42.35;39.20;;;;;;;;;;5034179;28;20501;-60
2023/10/11 08:46:28;;;;;;;27.83;25.00;;;;;;;;;;5034059;28;20032;-59
2023/10/11 08:48:53;;;;;;;30.75;28.25;;;;;;;;;;5034008;28;20088;-59
2023/10/11 08:51:21;;;;;;;19.48;17.60;;;;;;;;;;5033680;28;20160;-60
2023/10/11 08:53:47;;;;;;;25.00;22.48;;;;;;;;;;5034841;28;20589;-60
2023/10/11 08:56:15;;;;;;;21.23;19.33;;;;;;;;;;5034601;28;20061;-61
2023/10/11 08:58:41;;;;;;;18.25;16.50;;;;;;;;;;5034127;28;20022;-60
2023/10/11 09:01:07;;;;;;;27.92;25.77;;;;;;;;;;5033739;28;20036;-59
2023/10/11 09:03:39;;;;;;;20.27;18.25;;;;;;;;;;5034494;28;20068;-59
2023/10/11 09:06:05;;;;;;;;;;;;;;;;;;5035057;28;20029;-61
2023/10/11 09:08:31;;;;;;;13.25;11.63;;;;;;;;;;5033963;28;19905;-59
2023/10/11 09:11:06;;;;;;;31.70;29.20;;;;;;;;;;5034033;28;20036;-60
2023/10/11 09:13:36;;;;;;;17.15;14.60;;;;;;;;;;5033552;28;20548;-61
2023/10/11 09:16:04;;;;;;;31.63;29.17;;;;;;;;;;5033601;28;20082;-61
2023/10/11 09:18:34;;;;;;;22.77;20.67;;;;;;;;;;5033150;28;20041;-60
2023/10/11 09:21:09;;;;;;;62.92;58.97;;;;;;;;;;5032630;28;20504;-60
2023/10/11 09:23:35;;;;;;;26.67;24.63;;;;;;;;;;5033367;28;20395;-59
2023/10/11 09:26:01;;;;;;;52.15;48.70;;;;;;;;;;5033264;28;20023;-59
2023/10/11 09:28:27;;;;;;;31.15;28.77;;;;;;;;;;5032761;28;20049;-60
2023/10/11 09:31:03;;;;;;;26.73;24.25;;;;;;;;;;5032674;28;20072;-59
2023/10/11 09:33:34;;;;;;;41.30;38.55;;;;;;;;;;5032419;28;20022;-61
2023/10/11 09:36:03;;;;;;;99.70;94.00;;;;;;;;;;5032670;28;20017;-61
2023/10/11 09:38:38;;;;;;;58.00;54.72;;;;;;;;;;5032862;28;20038;-60
2023/10/11 09:41:07;;;;;;;250.95;236.30;;;;;;;;;;5032348;28;20384;-61
2023/10/11 09:43:34;;;;;;;173.45;164.27;;;;;;;;;;5032807;28;20053;-60
2023/10/11 09:45:59;;;;;;;184.23;170.77;;;;;;;;;;5032619;28;20380;-60
2023/10/11 09:48:25;;;;;;;25.13;23.30;;;;;;;;;;5032819;28;20033;-60
2023/10/11 09:50:50;;;;;;;75.47;70.73;;;;;;;;;;5032158;28;20104;-60
2023/10/11 09:53:15;;;;;;;56.47;52.53;;;;;;;;;;5032772;28;20493;-60
2023/10/11 09:55:47;;;;;;;84.95;78.47;;;;;;;;;;5032514;28;20018;-60
2023/10/11 09:58:21;;;;;;;91.93;86.45;;;;;;;;;;5032571;28;20021;-61
2023/10/11 10:01:18;;;;;;;164.18;154.48;;;;;;;;;;5031929;28;20143;-61
2023/10/11 10:03:47;;;;;;;71.60;67.28;;;;;;;;;;5023655;28;20072;-61
2023/10/11 10:06:18;;;;;;;102.88;96.47;;;;;;;;;;5032555;28;20500;-61
2023/10/11 10:12:09;;;;;;;69.63;65.13;;;;;;;;;;5032393;28;20033;-59
2023/10/11 10:14:38;;;;;;;58.53;54.78;;;;;;;;;;5032114;28;20022;-61
2023/10/11 10:17:10;;;;;;;36.78;34.25;;;;;;;;;;5032178;28;20080;-61
2023/10/11 10:19:39;;;;;;;27.55;25.58;;;;;;;;;;5031512;28;20043;-59
2023/10/11 10:22:27;;;;;;;75.95;71.43;;;;;;;;;;5032157;28;20018;-60
2023/10/11 10:24:56;;;;;;;61.70;57.88;;;;;;;;;;5032153;28;20025;-60
2023/10/11 10:27:33;;;;;;;77.00;72.45;;;;;;;;;;5032379;28;20083;-60
2023/10/11 10:29:59;;;;;;;79.93;75.07;;;;;;;;;;5031201;28;20048;-60
2023/10/11 10:32:25;;;;;;;66.00;61.95;;;;;;;;;;5032257;28;20559;-59
2023/10/11 10:35:11;;;;;;;116.95;110.13;;;;;;;;;;5032040;28;20028;-61
2023/10/11 10:37:46;;;;;;;54.20;50.70;;;;;;;;;;5031749;28;20022;-60
2023/10/11 10:40:14;;;;;;;100.13;94.40;;;;;;;;;;5031116;28;20021;-61
2023/10/11 10:42:44;;;;;;;31.38;29.40;;;;;;;;;;5030104;28;20031;-62
2023/10/11 10:45:09;;;;;;;30.95;28.95;;;;;;;;;;5030962;28;20025;-59
2023/10/11 10:47:37;;;;;;;35.38;33.08;;;;;;;;;;5031579;28;20170;-61
2023/10/11 10:50:09;;;;;;;31.60;29.60;;;;;;;;;;5030725;28;20028;-60
2023/10/11 10:52:34;;;;;;;25.30;23.45;;;;;;;;;;5031654;28;20036;-59
2023/10/11 10:55:03;;;;;;;38.03;35.83;;;;;;;;;;5031356;28;20014;-59
2023/10/11 10:57:32;;;;;;;11.02;10.10;;;;;;;;;;5031282;28;20028;-59
2023/10/11 11:00:05;;;;;;;26.83;24.83;;;;;;;;;;5030638;28;20032;-59
2023/10/11 11:02:36;;;;;;;14.23;13.05;;;;;;;;;;5031288;28;20068;-58
2023/10/11 11:05:03;;;;;;;19.48;17.98;;;;;;;;;;5029661;28;20041;-59
2023/10/11 11:07:32;;;;;;;18.52;17.13;;;;;;;;;;5031526;28;20025;-60
2023/10/11 11:09:58;;;;;;;50.00;47.03;;;;;;;;;;5036557;28;20468;-60
2023/10/11 11:12:27;;;;;;;15.77;14.38;;;;;;;;;;5051182;28;20028;-59
2023/10/11 11:14:56;;;;;;;82.55;77.95;;;;;;;;;;5051050;28;20071;-60
2023/10/11 11:17:23;;;;;;;13.20;11.98;;;;;;;;;;5050858;28;20021;-60
2023/10/11 11:20:12;;;;;;;21.35;19.67;;;;;;;;;;5050362;28;20099;-60
2023/10/11 11:22:38;;;;;;;15.13;13.80;;;;;;;;;;5051494;28;20048;-60
2023/10/11 11:25:18;;;;;;;13.00;11.77;;;;;;;;;;5050638;28;20029;-61
2023/10/11 11:27:44;;;;;;;26.58;24.58;;;;;;;;;;5050918;28;20599;-61
2023/10/11 11:30:16;;;;;;;41.90;39.35;;;;;;;;;;5050165;28;20460;-60
2023/10/11 11:32:45;;;;;;;15.82;14.38;;;;;;;;;;5050817;28;20055;-61
2023/10/11 11:35:15;;;;;;;14.93;13.43;;;;;;;;;;5050653;28;20063;-61
2023/10/11 11:38:01;;;;;;;29.27;27.25;;;;;;;;;;5050779;28;20078;-61
2023/10/11 11:40:26;;;;;;;15.40;14.15;;;;;;;;;;5050152;28;20070;-61
2023/10/11 11:42:51;;;;;;;33.07;30.90;;;;;;;;;;5050784;28;20100;-59
2023/10/11 11:45:17;;;;;;;48.00;43.80;;;;;;;;;;5050616;28;20025;-61
2023/10/11 11:47:55;;;;;;;33.45;31.23;;;;;;;;;;5050748;28;20472;-60
2023/10/11 11:50:37;;;;;;;14.02;12.95;;;;;;;;;;5049739;28;20514;-59
2023/10/11 11:53:03;;;;;;;20.30;18.48;;;;;;;;;;5050698;28;20451;-61
2023/10/11 11:55:28;;;;;;;18.00;16.50;;;;;;;;;;5051550;28;20017;-61
2023/10/11 11:57:54;;;;;;;46.03;43.30;;;;;;;;;;5054577;28;20025;-61
2023/10/11 12:02:52;;;;;;;19.70;18.20;;;;;;;;;;5043209;28;20029;-60
2023/10/11 12:05:17;;;;;;;34.58;31.77;;;;;;;;;;5034222;28;20024;-61
2023/10/11 12:07:43;;;;;;;37.92;35.58;;;;;;;;;;5033278;28;20017;-61
2023/10/11 12:10:23;;;;;;;25.15;23.40;;;;;;;;;;5033681;28;20052;-59
2023/10/11 12:13:05;;;;;;;29.52;27.50;;;;;;;;;;5034237;28;20017;-61
2023/10/11 12:15:30;;;;;;;26.55;24.50;;;;;;;;;;5034368;28;20437;-59
2023/10/11 12:17:55;;;;;;;14.95;13.63;;;;;;;;;;5034563;28;20049;-59
2023/10/11 12:20:33;;;;;;;121.55;111.25;;;;;;;;;;5033541;28;20029;-60
2023/10/11 12:23:07;;;;;;;24.45;22.63;;;;;;;;;;5034231;28;20033;-59
2023/10/11 12:25:33;;;;;;;37.95;35.60;;;;;;;;;;5034380;28;20049;-59
2023/10/11 12:28:01;;;;;;;26.55;24.75;;;;;;;;;;5034545;28;20021;-60
2023/10/11 12:30:26;;;;;;;75.75;71.53;;;;;;;;;;5033956;28;20045;-60
2023/10/11 12:32:52;;;;;;;49.30;46.33;;;;;;;;;;5034394;28;20075;-60
2023/10/11 12:35:17;;;;;;;;;;;;;;;;;;5034754;28;20029;-60
2023/10/11 12:37:42;;;;;;;15.00;13.70;;;;;;;;;;5034498;28;19912;-61
2023/10/11 12:40:22;;;;;;;15.20;11.40;;;;;;;;;;5033541;28;20030;-59
2023/10/11 12:42:48;;;;;;;34.20;31.92;;;;;;;;;;5032894;28;20536;-60
2023/10/11 12:45:16;;;;;;;43.72;41.13;;;;;;;;;;5034019;28;20106;-59
2023/10/11 12:47:42;;;;;;;67.95;63.67;;;;;;;;;;5033789;28;20029;-59
2023/10/11 12:50:08;;;;;;;39.90;37.35;;;;;;;;;;5033226;28;20093;-58
2023/10/11 12:52:34;;;;;;;;;;;;;;;;;;5034221;28;20496;-61
2023/10/11 12:55:05;;;;;;;125.82;118.38;;;;;;;;;;5033394;28;19905;-60
2023/10/11 12:57:30;;;;;;;28.95;26.73;;;;;;;;;;5033815;28;20018;-60
2023/10/11 12:59:58;;;;;;;38.22;35.35;;;;;;;;;;5033159;28;20457;-60
2023/10/11 13:02:30;;;;;;;26.13;24.08;;;;;;;;;;5033138;28;20046;-60
2023/10/11 13:04:58;;;;;;;16.98;15.65;;;;;;;;;;5033517;28;20377;-61
2023/10/11 13:07:26;;;;;;;31.35;29.33;;;;;;;;;;5032624;28;20045;-61
2023/10/11 13:09:51;;;;;;;44.97;42.25;;;;;;;;;;5033335;28;20037;-61
2023/10/11 13:12:17;;;;;;;133.10;121.60;;;;;;;;;;5033434;28;20029;-60
2023/10/11 13:14:43;;;;;;;41.75;38.92;;;;;;;;;;5032924;28;20427;-61
2023/10/11 13:17:15;;;;;;;;;;;;;;;;;;5034024;28;20029;-58
2023/10/11 13:19:43;;;;;;;66.28;62.38;;;;;;;;;;5032529;28;19913;-60
2023/10/11 13:22:09;;;;;;;10.63;9.45;;;;;;;;;;5033068;28;20072;-59
2023/10/11 13:24:35;;;;;;;18.42;17.10;;;;;;;;;;5032886;28;20014;-60
2023/10/11 13:27:00;;;;;;;;;;;;;;;;;;5033671;28;20021;-60
2023/10/11 13:29:27;;;;;;;29.05;26.98;;;;;;;;;;5031425;28;19909;-59
2023/10/11 13:31:54;;;;;;;39.85;37.25;;;;;;;;;;5032438;28;20029;-58
2023/10/11 13:34:20;;;;;;;101.15;95.55;;;;;;;;;;5032675;28;20017;-60
2023/10/11 13:36:45;;;;;;;56.92;53.33;;;;;;;;;;5032519;28;20029;-60
2023/10/11 13:39:25;;;;;;;54.10;50.77;;;;;;;;;;5032726;28;20032;-63
2023/10/11 13:41:52;;;;;;;16.63;15.23;;;;;;;;;;5032886;28;20025;-58
2023/10/11 13:44:19;;;;;;;30.92;28.88;;;;;;;;;;5032904;28;20150;-62
2023/10/11 13:46:44;;;;;;;37.67;35.30;;;;;;;;;;5032622;28;20014;-60
2023/10/11 13:49:24;;;;;;;28.67;26.53;;;;;;;;;;5032233;28;20082;-59
2023/10/11 13:51:49;;;;;;;40.55;37.85;;;;;;;;;;5032290;28;20557;-61
2023/10/11 13:54:18;;;;;;;95.57;88.33;;;;;;;;;;5032742;28;20108;-60
2023/10/11 13:56:44;;;;;;;64.72;61.08;;;;;;;;;;5032660;28;20047;-60
2023/10/11 13:59:10;;;;;;;26.33;24.35;;;;;;;;;;5032193;28;20133;-61
2023/10/11 14:04:40;;;;;;;17.92;16.30;;;;;;;;;;5032350;28;20074;-61
2023/10/11 14:07:22;;;;;;;38.83;36.08;;;;;;;;;;5032132;28;20095;-60
2023/10/11 14:09:47;;;;;;;31.65;29.40;;;;;;;;;;5031525;28;20089;-59
2023/10/11 14:12:17;;;;;;;14.75;13.52;;;;;;;;;;5031928;28;20037;-59
2023/10/11 14:14:43;;;;;;;16.02;14.57;;;;;;;;;;5032314;28;20026;-60
2023/10/11 14:17:15;;;;;;;19.83;18.17;;;;;;;;;;5031944;28;20025;-59
2023/10/11 14:19:40;;;;;;;20.42;18.75;;;;;;;;;;5031450;28;20034;-60
2023/10/11 14:22:05;;;;;;;30.20;28.23;;;;;;;;;;5032520;28;20034;-60
2023/10/11 14:24:30;;;;;;;;;;;;;;;;;;5034524;28;20470;-60
2023/10/11 14:26:55;;;;;;;43.75;41.08;;;;;;;;;;5032930;28;19913;-62
2023/10/11 14:29:20;;;;;;;;;;;;;;;;;;5032527;28;20473;-61
2023/10/11 14:31:46;;;;;;;38.85;36.50;;;;;;;;;;5031504;28;19916;-59
2023/10/11 14:34:11;;;;;;;;;;;;;;;;;;5032578;28;20405;-59
2023/10/11 14:36:37;;;;;;;29.27;27.30;;;;;;;;;;5031964;28;20029;-59
2023/10/11 14:39:08;;;;;;;22.10;20.27;;;;;;;;;;5031877;28;20017;-61
2023/10/11 14:41:37;;;;;;;;;;;;;;;;;;5031872;28;20342;-60
2023/10/11 14:44:03;;;;;;;27.17;25.35;;;;;;;;;;5031682;28;19952;-60
2023/10/11 14:46:29;;;;;;;40.40;37.58;;;;;;;;;;5031935;28;20052;-61
2023/10/11 14:48:54;;;;;;;29.67;27.40;;;;;;;;;;5031482;28;20115;-61
2023/10/11 14:51:19;;;;;;;35.53;33.10;;;;;;;;;;5029820;28;20022;-61
2023/10/11 14:53:48;;;;;;;32.05;29.55;;;;;;;;;;5031426;28;20453;-61
2023/10/11 14:56:14;;;;;;;45.42;42.47;;;;;;;;;;5031716;28;20083;-61
2023/10/11 14:58:39;;;;;;;39.17;36.65;;;;;;;;;;5031602;28;20025;-59
2023/10/11 15:01:07;;;;;;;18.13;16.80;;;;;;;;;;5031265;28;20024;-62
2023/10/11 15:03:32;;;;;;;25.90;23.77;;;;;;;;;;5031680;28;20036;-59
2023/10/11 15:05:57;;;;;;;61.77;55.33;;;;;;;;;;5031445;28;20509;-58
2023/10/11 15:08:22;;;;;;;26.67;24.33;;;;;;;;;;5031715;28;20036;-61